Buoy 43533

sailwx.info

Track history (hours):
 
Tides and Currents Weather Stations Pressure Air Temp Water Temp Dewpoint Dewpoint Depression Visibility Wind Speed Wind Dir Waves Ship Positions

Drifting buoy 43533

Last reported at 2015-Apr-19 16:00 UTC. Time now 2015-Apr-19 22:59 UTC.
Position N 18°44' W 104°06'.

Length 24 m.

Type: Fishing. MMSI: 412466549.

Water temperature 27.5 ° C

Date/timePositionNaut miles runAvg speedWind from/ knotsBaromVisibWave heightAir tempDewpointWater temp
2015-Apr-19 16:00N 18°44' W 104°06'1 0.3 27.5
2015-Apr-19 13:00N 18°45' W 104°07'2 1.9 27.1
2015-Apr-19 12:00N 18°46' W 104°08'1 1.5 27.1
2015-Apr-19 11:00N 18°46' W 104°07'4 2.0 27.1
2015-Apr-19 09:00N 18°46' W 104°11'4 0.3 27.2
2015-Apr-18 17:00N 18°48' W 104°15'1 0.2 27.4
2015-Apr-18 12:00N 18°49' W 104°15'0 0.0 27.2
2015-Apr-18 11:00N 18°49' W 104°15'4 1.9 27.2
2015-Apr-18 09:00N 18°50' W 104°19'0 0.0 27.2
2015-Apr-18 08:00N 18°50' W 104°19'1 0.2 27.3
2015-Apr-18 04:00N 18°50' W 104°20'2 0.9 27.5
2015-Apr-18 02:00N 18°50' W 104°22'0 0.0 27.6
2015-Apr-18 01:00N 18°50' W 104°22'2 1.9 27.7
2015-Apr-18 00:00N 18°49' W 104°24'1 0.1 27.7
2015-Apr-17 13:00N 18°48' W 104°24'4 0.3 27.3
2015-Apr-16 23:00N 18°51' W 104°26'0 0.0 27.9
2015-Apr-16 22:00N 18°51' W 104°26'1 0.6 27.9
2015-Apr-16 21:00N 18°51' W 104°26'2 0.5 27.9
2015-Apr-16 17:00N 18°50' W 104°28'0 0.0 27.8
2015-Apr-16 16:00N 18°50' W 104°28'2 0.3 27.8
2015-Apr-16 08:00N 18°48' W 104°27'1 0.2 27.8
2015-Apr-16 04:00N 18°49' W 104°26'1 0.3 27.9
2015-Apr-16 02:00N 18°49' W 104°27'1 0.5 28.0
2015-Apr-16 00:00N 18°48' W 104°26'1 0.2 28.3
2015-Apr-15 21:00N 18°48' W 104°26'0 0.0 28.8
2015-Apr-15 20:00N 18°48' W 104°26'1 0.1 28.7
2015-Apr-15 13:00N 18°47' W 104°25'1 0.4 27.8
2015-Apr-15 11:00N 18°47' W 104°26'0 0.0 27.8
2015-Apr-15 10:00N 18°47' W 104°26'3 0.5 27.8
2015-Apr-15 04:00N 18°44' W 104°25'2 0.3 28.0
2015-Apr-14 21:00N 18°42' W 104°23'2 0.6 28.7
2015-Apr-14 17:00N 18°41' W 104°22'0 0.3 28.4
2015-Apr-14 16:00N 18°40' W 104°22'1 0.2 27.9
2015-Apr-14 11:00N 18°40' W 104°21'0 0.0 27.7
2015-Apr-14 10:00N 18°40' W 104°21'7 0.4 27.7
2015-Apr-13 18:00N 18°34' W 104°18'4 0.4 27.9
2015-Apr-13 10:00N 18°30' W 104°16'2 0.4 27.7
2015-Apr-13 04:00N 18°28' W 104°15'1 0.6 27.8
2015-Apr-13 03:00N 18°28' W 104°15'1 0.3 27.8
2015-Apr-13 00:00N 18°27' W 104°14'1 0.6 28.0
2015-Apr-12 23:00N 18°27' W 104°14'1 0.2 28.1
2015-Apr-12 20:00N 18°26' W 104°14'0 0.1 28.1
2015-Apr-12 19:00N 18°26' W 104°14'1 0.3 28.1
2015-Apr-12 15:00N 18°25' W 104°14'2 1.0 27.6
2015-Apr-12 13:00N 18°23' W 104°13'3 0.4 27.6
2015-Apr-12 05:00N 18°20' W 104°15'1 0.4 27.8
2015-Apr-12 03:00N 18°20' W 104°15'2 1.6 28.0
2015-Apr-12 02:00N 18°18' W 104°14'1 0.6 28.1
2015-Apr-12 01:00N 18°18' W 104°15'1 0.7 28.2
2015-Apr-11 23:00N 18°17' W 104°14'1 0.8 28.7
2015-Apr-11 22:00N 18°16' W 104°13'1 0.7 28.9
2015-Apr-11 21:00N 18°16' W 104°13'0 0.0 29.2
2015-Apr-11 20:00N 18°16' W 104°13'1 0.3 29.3
2015-Apr-11 17:00N 18°15' W 104°13'2 1.0 27.7
2015-Apr-11 15:00N 18°13' W 104°14'0 0.1 27.5
2015-Apr-11 12:00N 18°13' W 104°13'3 0.4 27.5
2015-Apr-11 04:00N 18°10' W 104°15'0 0.4 27.8
2015-Apr-11 03:00N 18°10' W 104°15'1 0.7 27.9
2015-Apr-11 01:00N 18°08' W 104°14'1 0.5 28.0
2015-Apr-10 23:00N 18°08' W 104°15'1 0.6 28.2
2015-Apr-10 22:00N 18°07' W 104°14'1 0.3 28.3
2015-Apr-10 20:00N 18°07' W 104°15'0 0.0 28.3
2015-Apr-10 19:00N 18°07' W 104°15'2 0.7 28.1
2015-Apr-10 16:00N 18°05' W 104°15'1 0.4 27.8
2015-Apr-10 12:00N 18°03' W 104°16'0 0.0 27.6
2015-Apr-10 11:00N 18°03' W 104°16'1 0.7 27.6
2015-Apr-10 09:00N 18°02' W 104°16'1 0.1 27.9
2015-Apr-10 04:00N 18°01' W 104°16'2 0.5 28.1
2015-Apr-10 00:00N 17°60' W 104°17'1 0.2 28.7
2015-Apr-09 16:00N 17°58' W 104°16'   27.8
Track history (hours):
 
Tides and Currents Weather Stations Pressure Air Temp Water Temp Dewpoint Dewpoint Depression Visibility Wind Speed Wind Dir Waves Ship Positions

Drifting buoy 43533

Last reported at 2015-Apr-19 16:00 UTC. Time now 2015-Apr-19 22:59 UTC.
Position N 18°44' W 104°06'.

Length 24 m.

Type: Fishing. MMSI: 412466549.

Water temperature 27.5 ° C

Date/timePositionNaut miles runAvg speedWind from/ knotsBaromVisibWave heightAir tempDewpointWater temp
2015-Apr-19 16:00N 18°44' W 104°06'1 0.3 27.5
2015-Apr-19 13:00N 18°45' W 104°07'2 1.9 27.1
2015-Apr-19 12:00N 18°46' W 104°08'1 1.5 27.1
2015-Apr-19 11:00N 18°46' W 104°07'4 2.0 27.1
2015-Apr-19 09:00N 18°46' W 104°11'4 0.3 27.2
2015-Apr-18 17:00N 18°48' W 104°15'1 0.2 27.4
2015-Apr-18 12:00N 18°49' W 104°15'0 0.0 27.2
2015-Apr-18 11:00N 18°49' W 104°15'4 1.9 27.2
2015-Apr-18 09:00N 18°50' W 104°19'0 0.0 27.2
2015-Apr-18 08:00N 18°50' W 104°19'1 0.2 27.3
2015-Apr-18 04:00N 18°50' W 104°20'2 0.9 27.5
2015-Apr-18 02:00N 18°50' W 104°22'0 0.0 27.6
2015-Apr-18 01:00N 18°50' W 104°22'2 1.9 27.7
2015-Apr-18 00:00N 18°49' W 104°24'1 0.1 27.7
2015-Apr-17 13:00N 18°48' W 104°24'4 0.3 27.3
2015-Apr-16 23:00N 18°51' W 104°26'0 0.0 27.9
2015-Apr-16 22:00N 18°51' W 104°26'1 0.6 27.9
2015-Apr-16 21:00N 18°51' W 104°26'2 0.5 27.9
2015-Apr-16 17:00N 18°50' W 104°28'0 0.0 27.8
2015-Apr-16 16:00N 18°50' W 104°28'2 0.3 27.8
2015-Apr-16 08:00N 18°48' W 104°27'1 0.2 27.8
2015-Apr-16 04:00N 18°49' W 104°26'1 0.3 27.9
2015-Apr-16 02:00N 18°49' W 104°27'1 0.5 28.0
2015-Apr-16 00:00N 18°48' W 104°26'1 0.2 28.3
2015-Apr-15 21:00N 18°48' W 104°26'0 0.0 28.8
2015-Apr-15 20:00N 18°48' W 104°26'1 0.1 28.7
2015-Apr-15 13:00N 18°47' W 104°25'1 0.4 27.8
2015-Apr-15 11:00N 18°47' W 104°26'0 0.0 27.8
2015-Apr-15 10:00N 18°47' W 104°26'3 0.5 27.8
2015-Apr-15 04:00N 18°44' W 104°25'2 0.3 28.0
2015-Apr-14 21:00N 18°42' W 104°23'2 0.6 28.7
2015-Apr-14 17:00N 18°41' W 104°22'0 0.3 28.4
2015-Apr-14 16:00N 18°40' W 104°22'1 0.2 27.9
2015-Apr-14 11:00N 18°40' W 104°21'0 0.0 27.7
2015-Apr-14 10:00N 18°40' W 104°21'7 0.4 27.7
2015-Apr-13 18:00N 18°34' W 104°18'4 0.4 27.9
2015-Apr-13 10:00N 18°30' W 104°16'2 0.4 27.7
2015-Apr-13 04:00N 18°28' W 104°15'1 0.6 27.8
2015-Apr-13 03:00N 18°28' W 104°15'1 0.3 27.8
2015-Apr-13 00:00N 18°27' W 104°14'1 0.6 28.0
2015-Apr-12 23:00N 18°27' W 104°14'1 0.2 28.1
2015-Apr-12 20:00N 18°26' W 104°14'0 0.1 28.1
2015-Apr-12 19:00N 18°26' W 104°14'1 0.3 28.1
2015-Apr-12 15:00N 18°25' W 104°14'2 1.0 27.6
2015-Apr-12 13:00N 18°23' W 104°13'3 0.4 27.6
2015-Apr-12 05:00N 18°20' W 104°15'1 0.4 27.8
2015-Apr-12 03:00N 18°20' W 104°15'2 1.6 28.0
2015-Apr-12 02:00N 18°18' W 104°14'1 0.6 28.1
2015-Apr-12 01:00N 18°18' W 104°15'1 0.7 28.2
2015-Apr-11 23:00N 18°17' W 104°14'1 0.8 28.7
2015-Apr-11 22:00N 18°16' W 104°13'1 0.7 28.9
2015-Apr-11 21:00N 18°16' W 104°13'0 0.0 29.2
2015-Apr-11 20:00N 18°16' W 104°13'1 0.3 29.3
2015-Apr-11 17:00N 18°15' W 104°13'2 1.0 27.7
2015-Apr-11 15:00N 18°13' W 104°14'0 0.1 27.5
2015-Apr-11 12:00N 18°13' W 104°13'3 0.4 27.5
2015-Apr-11 04:00N 18°10' W 104°15'0 0.4 27.8
2015-Apr-11 03:00N 18°10' W 104°15'1 0.7 27.9
2015-Apr-11 01:00N 18°08' W 104°14'1 0.5 28.0
2015-Apr-10 23:00N 18°08' W 104°15'1 0.6 28.2
2015-Apr-10 22:00N 18°07' W 104°14'1 0.3 28.3
2015-Apr-10 20:00N 18°07' W 104°15'0 0.0 28.3
2015-Apr-10 19:00N 18°07' W 104°15'2 0.7 28.1
2015-Apr-10 16:00N 18°05' W 104°15'1 0.4 27.8
2015-Apr-10 12:00N 18°03' W 104°16'0 0.0 27.6
2015-Apr-10 11:00N 18°03' W 104°16'1 0.7 27.6
2015-Apr-10 09:00N 18°02' W 104°16'1 0.1 27.9
2015-Apr-10 04:00N 18°01' W 104°16'2 0.5 28.1
2015-Apr-10 00:00N 17°60' W 104°17'1 0.2 28.7
2015-Apr-09 16:00N 17°58' W 104°16'   27.8

Dump ship's entire track history